Rongjiang, China
Current Conditions -  °F | °C
As of 8:00 PM on Tuesday 21 Oct 2014 (Local Time) from ZGKL Reporting Station
Broken Clouds Broken Clouds  
Wind Chill: 70°   Ceiling: 4000
Heat Index: 70°   Visibility: 6mi
Dew Point: 63°   Wind: 4mph
Humidity: 78%   Direction: NA
Pressure: 30.12"   Gusts: NA
Location:  25.97°N, 108.53°E
Report Text: ZGKL 211200Z VRB02MPS 9999 BKN040 21/17 Q1020 NOSIG
Loading
Personal Weather Stations






























Interactive Weather Map
Tropical Storm Tracking
New forecast layout! Learn more

10-Day Weather Forecast

Advertisements
Track Severe Weather on mobile